Terminal Aerodrome Forecast
Issued by NWS Indianapolis, IN

Home | Current Version | Previous Version | Text Only | Print | Product List | Glossary On
Versions: 1 2 3 4 5 6 7 8 9 10 11 12 13 14 15 16 17 18 19 20 21 22 23 24 25
210
FTUS43 KIND 071120
TAFIND
TAF
KIND 071120Z 0712/0818 22009KT P6SM BKN150
     FM071500 22012G18KT P6SM BKN150
     FM071700 22015G22KT P6SM SCT050 BKN150
     FM072300 22011KT P6SM SCT040 BKN150
     FM080400 26006KT P6SM SCT025 OVC040
     FM081400 26009KT 3SM -SN OVC015=

USA.gov is the U.S. government's official web portal to all federal, state and local government web resources and services.